Colorado Springs, CO (80902)

8:21 AM MST on February 23, 2017 (GMT -0700)
Broadmoor Bluffs | | Change Station
Active Advisory: Fire Weather Warning

Elev 6463 ft 38.75 °N, 104.83 °W | Updated 3 seconds ago

Partly Cloudy
Partly Cloudy
32.9 °F
Feels Like 33 °F
N
0.0
Wind Variable Wind from NNE
Gusts 0.0 mph

Today
High -- | Low -- °F
--% Chance of Precip.
Yesterday
High -- | Low -- °F
Precip. -- in
Pressure 29.52 in
Visibility 10.0 miles
Clouds Clear
Windchill 33 °F
Dew Point 21 °F
Humidity 61%
Rainfall 0.00 in
Snow Depth Not available.
6:39 AM 5:46 PM
Waning Crescent, 10% visible
METAR KFCS 231458Z AUTO 34015G20KT 10SM CLR 00/M05 A2949 RMK AO2 SLP997 T00041055 56012 $
Pressure 29.52 in
Visibility 10.0 miles
Clouds Clear
Windchill 33 °F
Dew Point 21 °F
Humidity 61%
Rainfall 0.00 in
Snow Depth Not available.
6:39 AM 5:46 PM
Waning Crescent, 10% visible
METAR KFCS 231458Z AUTO 34015G20KT 10SM CLR 00/M05 A2949 RMK AO2 SLP997 T00041055 56012 $

Get Your Daily Forecast Email!

Thanks for signing up!

Be on the lookout for a verification email in your inbox.

You'll start receiving the daily forecast at 8 AM.

×

10-Day Weather Forecast

Almanac

Astronomy

Feb. 23, 2017 Rise Set
Actual Time
Civil Twilight
Nautical Twilight
Astronomical Twilight
Moon
Length of Visible Light
Length of Day
Tomorrow will be .
, % of the Moon is Illuminated

Today's Extremes

State Highs State Lows

Community

WunderPhotos

Upload Photos

1,962,540 photos uploaded!

WunderBlog® & News

Nearby

Air Quality

  Air Quality AQ Index Pollutant
Not available.

Snow Depth

Station Depth Elevation

Earthquake Activity

City Distance Mag. Time & Date
Minimum magnitude displayed is 2.5.

Coastal Water Temperatures

Place Temperature

Stations

Nearby Weather Stations

Station Location Temp. Windchill Dew Point Humidity Wind Precip. Elev Updated Type
                   

Watches & Warnings

Fire Weather Warning
Issued: 3:33 AM MST Feb. 23, 2017 – National Weather Service

... Red flag warning remains in effect from 11 am this morning to
6 PM MST this evening for fire weather zones 227... 228... 229...
230... 231... 232 and 233...

* affected area... fire weather zones 227... 228... 229... 230...
231... 232... 233... 234... 235... 236 and 237.

* Winds... west 25 to 35 mph with gusts up to 55 mph.

* Relative humidity... as low as 12 percent.

* Impacts... conditions will be favorable for the rapid ignition,
growth and spread of fires Thursday morning through the early
evening hours.

Precautionary/preparedness actions...

A red flag warning means that critical fire weather conditions
are either occurring now, or will shortly. A combination of
strong winds, low relative humidity, and warm temperatures can
contribute to extreme fire behavior.